createdAt,value
2017-08-29T00:01:54.680Z,28.60
2017-08-29T00:04:22.279Z,22.83
2017-08-29T00:06:49.886Z,23.73
2017-08-29T00:09:17.486Z,22.97
2017-08-29T00:11:45.103Z,26.00
2017-08-29T00:14:12.680Z,29.97
2017-08-29T00:16:40.241Z,23.20
2017-08-29T00:19:07.871Z,23.13
2017-08-29T00:21:35.446Z,23.50
2017-08-29T00:24:03.044Z,23.50
2017-08-29T00:26:30.628Z,24.40
2017-08-29T00:28:58.222Z,25.10
2017-08-29T00:31:25.899Z,21.80
2017-08-29T00:33:53.511Z,25.10
2017-08-29T00:36:21.101Z,23.10
2017-08-29T00:38:48.675Z,27.23
2017-08-29T00:41:16.290Z,23.17
2017-08-29T00:43:43.888Z,26.93
2017-08-29T00:46:11.486Z,22.77
2017-08-29T00:48:39.069Z,22.93
2017-08-29T00:51:06.663Z,21.77
2017-08-29T00:53:34.232Z,23.73
2017-08-29T00:56:01.835Z,24.10
2017-08-29T00:58:29.451Z,25.03
2017-08-29T01:00:57.010Z,24.30
2017-08-29T01:03:24.610Z,28.40
2017-08-29T01:05:52.181Z,24.90
2017-08-29T01:08:19.787Z,26.93
2017-08-29T01:10:47.377Z,23.00
2017-08-29T01:13:14.983Z,25.17
2017-08-29T01:15:42.623Z,23.77
2017-08-29T01:18:10.221Z,23.60
2017-08-29T01:20:37.800Z,24.33
2017-08-29T01:23:05.370Z,22.70
2017-08-29T01:25:32.948Z,23.50
2017-08-29T01:28:00.543Z,22.50
2017-08-29T01:30:28.148Z,27.20
2017-08-29T01:32:55.765Z,25.13
2017-08-29T01:35:23.349Z,22.77
2017-08-29T01:37:50.930Z,23.60
2017-08-29T01:40:18.523Z,24.93
2017-08-29T01:42:46.122Z,22.70
2017-08-29T01:45:13.711Z,21.63
2017-08-29T01:47:41.297Z,24.77
2017-08-29T01:50:08.896Z,22.03
2017-08-29T01:52:36.495Z,22.47
2017-08-29T01:55:04.106Z,24.13
2017-08-29T01:57:31.662Z,25.53
2017-08-29T01:59:59.263Z,22.97
2017-08-29T02:02:26.894Z,22.80
2017-08-29T02:04:54.477Z,24.03
2017-08-29T02:07:22.082Z,25.53
2017-08-29T02:09:49.724Z,23.63
2017-08-29T02:12:17.327Z,25.77
2017-08-29T02:14:44.885Z,24.60
2017-08-29T02:17:12.459Z,25.80
2017-08-29T02:19:40.055Z,23.50
2017-08-29T02:22:07.651Z,27.97
2017-08-29T02:24:35.223Z,24.70
2017-08-29T02:27:02.826Z,25.00
2017-08-29T02:29:30.405Z,25.63
2017-08-29T02:31:57.982Z,23.23
2017-08-29T02:34:25.546Z,28.30
2017-08-29T02:36:53.115Z,25.87
2017-08-29T02:39:20.695Z,25.03
2017-08-29T02:41:48.293Z,26.20
2017-08-29T02:44:15.892Z,23.90
2017-08-29T02:46:43.502Z,25.40
2017-08-29T02:49:11.082Z,25.67
2017-08-29T02:51:38.655Z,25.00
2017-08-29T02:54:06.243Z,23.60
2017-08-29T02:56:33.836Z,25.20
2017-08-29T02:59:01.437Z,23.00
2017-08-29T03:01:29.051Z,26.23
2017-08-29T03:03:56.670Z,25.30
2017-08-29T03:06:24.255Z,25.73
2017-08-29T03:08:51.891Z,22.43
2017-08-29T03:11:20.473Z,30.40
2017-08-29T03:13:48.029Z,23.07
2017-08-29T03:16:15.613Z,26.80
2017-08-29T03:18:43.199Z,22.83
2017-08-29T03:21:10.767Z,23.37
2017-08-29T03:23:38.370Z,22.73
2017-08-29T03:26:05.950Z,23.77
2017-08-29T03:28:33.536Z,22.77
2017-08-29T03:31:01.094Z,22.27
2017-08-29T03:33:28.645Z,24.17
2017-08-29T03:35:57.095Z,23.73
2017-08-29T03:38:24.695Z,22.53
2017-08-29T03:40:52.242Z,23.00
2017-08-29T03:43:19.835Z,22.27
2017-08-29T03:45:47.403Z,21.93
2017-08-29T03:48:15.030Z,22.93
2017-08-29T03:50:42.630Z,23.07
2017-08-29T03:53:10.200Z,22.60
2017-08-29T03:55:37.755Z,22.03
2017-08-29T03:58:05.348Z,20.67
2017-08-29T04:00:32.933Z,20.43
2017-08-29T04:03:00.506Z,20.50
2017-08-29T04:05:28.107Z,21.50
2017-08-29T04:07:55.711Z,23.70
2017-08-29T04:10:23.282Z,25.90
2017-08-29T04:12:50.900Z,20.57
2017-08-29T04:15:19.261Z,21.10
2017-08-29T04:17:46.833Z,19.70
2017-08-29T04:20:15.148Z,19.50
2017-08-29T04:22:42.742Z,23.80
2017-08-29T04:25:10.315Z,24.33
2017-08-29T04:27:37.860Z,21.13
2017-08-29T04:30:05.480Z,22.07
2017-08-29T04:32:33.090Z,19.93
2017-08-29T04:35:00.669Z,20.60
2017-08-29T04:37:28.247Z,24.10
2017-08-29T04:39:55.843Z,20.63
2017-08-29T04:42:23.412Z,20.50
2017-08-29T04:44:51.798Z,19.93
2017-08-29T04:47:19.371Z,20.23
2017-08-29T04:49:46.987Z,19.53
2017-08-29T04:52:14.579Z,20.00
2017-08-29T04:54:42.169Z,20.53
2017-08-29T04:57:09.747Z,19.77
2017-08-29T04:59:37.340Z,25.03
2017-08-29T05:02:04.912Z,21.00
2017-08-29T05:04:32.529Z,21.93
2017-08-29T05:07:00.120Z,22.03
2017-08-29T05:09:27.731Z,24.20
2017-08-29T05:11:55.348Z,19.50
2017-08-29T05:14:22.919Z,18.83
2017-08-29T05:16:50.527Z,19.33
2017-08-29T05:19:18.219Z,18.60
2017-08-29T05:21:45.819Z,20.10
2017-08-29T05:24:13.419Z,19.33
2017-08-29T05:26:41.979Z,18.80
2017-08-29T05:29:09.538Z,20.10
2017-08-29T05:31:37.147Z,20.30
2017-08-29T05:34:04.730Z,21.70
2017-08-29T05:36:32.384Z,21.33
2017-08-29T05:38:59.960Z,18.53
2017-08-29T05:41:27.553Z,17.50
2017-08-29T05:43:55.147Z,20.97
2017-08-29T05:46:22.788Z,17.27
2017-08-29T05:48:50.409Z,16.63
2017-08-29T05:51:18.000Z,19.40
2017-08-29T05:53:45.616Z,22.10
2017-08-29T05:56:13.195Z,20.30
2017-08-29T05:58:40.784Z,19.87
2017-08-29T06:01:08.386Z,20.13
2017-08-29T06:03:36.002Z,18.27
2017-08-29T06:06:03.589Z,20.20
2017-08-29T06:08:31.199Z,18.40
2017-08-29T06:10:58.774Z,18.63
2017-08-29T06:13:26.358Z,17.67
2017-08-29T06:15:54.034Z,20.53
2017-08-29T06:18:21.622Z,20.23
2017-08-29T06:20:49.241Z,16.53
2017-08-29T06:23:16.819Z,20.33
2017-08-29T06:25:44.472Z,19.20
2017-08-29T06:28:12.092Z,16.90
2017-08-29T06:30:39.666Z,15.90
2017-08-29T06:33:07.390Z,20.40
2017-08-29T06:35:34.987Z,19.30
2017-08-29T06:38:02.571Z,21.93
2017-08-29T06:40:30.157Z,20.40
2017-08-29T06:42:57.758Z,16.20
2017-08-29T06:45:26.024Z,15.60
2017-08-29T06:47:53.599Z,18.20
2017-08-29T06:50:21.188Z,20.30
2017-08-29T06:52:48.795Z,15.57
2017-08-29T06:55:16.378Z,15.90
2017-08-29T06:57:43.972Z,16.40
2017-08-29T07:00:11.588Z,20.13
2017-08-29T07:02:39.189Z,15.93
2017-08-29T07:05:06.789Z,17.13
2017-08-29T07:07:34.373Z,17.43
2017-08-29T07:10:01.966Z,21.40
2017-08-29T07:12:29.592Z,17.50
2017-08-29T07:14:57.471Z,18.83
2017-08-29T07:17:25.070Z,17.70
2017-08-29T07:19:54.352Z,17.17
2017-08-29T07:22:21.952Z,18.50
2017-08-29T07:24:49.556Z,18.47
2017-08-29T07:27:17.142Z,16.07
2017-08-29T07:29:44.720Z,20.47
2017-08-29T07:32:12.977Z,16.67
2017-08-29T07:34:40.600Z,18.33
2017-08-29T07:37:08.206Z,15.47
2017-08-29T07:39:35.759Z,18.00
2017-08-29T07:42:03.371Z,16.10
2017-08-29T07:44:30.970Z,15.50
2017-08-29T07:46:58.581Z,16.23
2017-08-29T07:49:26.179Z,14.93
2017-08-29T07:51:53.796Z,17.80
2017-08-29T07:54:21.458Z,15.17
2017-08-29T07:56:49.076Z,14.87
2017-08-29T07:59:17.390Z,13.90
2017-08-29T08:01:44.971Z,17.43
2017-08-29T08:04:12.548Z,16.57
2017-08-29T08:06:40.172Z,16.73
2017-08-29T08:09:08.721Z,17.40
2017-08-29T08:11:36.328Z,15.37
2017-08-29T08:14:03.936Z,17.20
2017-08-29T08:16:31.556Z,15.83
2017-08-29T08:18:59.135Z,16.20
2017-08-29T08:21:26.772Z,15.53
2017-08-29T08:23:54.383Z,14.90
2017-08-29T08:26:21.979Z,18.90
2017-08-29T08:28:49.589Z,14.97
2017-08-29T08:31:17.172Z,18.67
2017-08-29T08:33:44.746Z,15.67
2017-08-29T08:36:12.372Z,15.60
2017-08-29T08:38:39.973Z,14.70
2017-08-29T08:41:07.594Z,15.53
2017-08-29T08:43:35.186Z,20.37
2017-08-29T08:46:02.815Z,15.03
2017-08-29T08:48:30.392Z,15.83
2017-08-29T08:50:57.985Z,15.50
2017-08-29T08:53:25.546Z,14.93
2017-08-29T08:55:53.143Z,14.03
2017-08-29T08:58:20.745Z,14.70
2017-08-29T09:00:48.337Z,15.10
2017-08-29T09:03:15.928Z,16.37
2017-08-29T09:05:44.147Z,18.90
2017-08-29T09:08:11.728Z,15.50
2017-08-29T09:10:39.319Z,19.93
2017-08-29T09:13:06.912Z,14.67
2017-08-29T09:15:34.515Z,15.00
2017-08-29T09:18:02.103Z,21.33
2017-08-29T09:20:29.717Z,17.33
2017-08-29T09:22:57.341Z,15.03
2017-08-29T09:25:24.960Z,22.37
2017-08-29T09:27:53.278Z,15.03
2017-08-29T09:30:20.869Z,15.23
2017-08-29T09:32:48.462Z,15.43
2017-08-29T09:35:16.070Z,15.93
2017-08-29T09:37:43.656Z,16.13
2017-08-29T09:40:11.247Z,15.87
2017-08-29T09:42:38.837Z,21.00
2017-08-29T09:45:06.472Z,15.83
2017-08-29T09:47:34.060Z,20.33
2017-08-29T09:50:02.610Z,17.97
2017-08-29T09:52:30.189Z,17.43
2017-08-29T09:54:57.863Z,14.93
2017-08-29T09:57:25.490Z,15.70
2017-08-29T09:59:53.128Z,17.10
2017-08-29T10:02:20.741Z,14.70
2017-08-29T10:04:48.335Z,15.93
2017-08-29T10:07:15.958Z,15.90
2017-08-29T10:09:43.551Z,13.63
2017-08-29T10:12:11.199Z,13.70
2017-08-29T10:14:38.789Z,15.30
2017-08-29T10:17:06.393Z,14.00
2017-08-29T10:19:34.044Z,14.70
2017-08-29T10:22:01.667Z,14.80
2017-08-29T10:24:29.254Z,17.57
2017-08-29T10:26:56.898Z,19.07
2017-08-29T10:29:24.530Z,15.67
2017-08-29T10:31:52.111Z,16.00
2017-08-29T10:34:20.250Z,15.97
2017-08-29T10:36:47.830Z,15.23
2017-08-29T10:39:15.438Z,16.50
2017-08-29T10:41:43.040Z,15.07
2017-08-29T10:44:11.478Z,13.80
2017-08-29T10:46:39.085Z,14.17
2017-08-29T10:49:06.678Z,15.83
2017-08-29T10:51:34.323Z,14.50
2017-08-29T10:54:01.938Z,12.67
2017-08-29T10:56:29.507Z,11.83
2017-08-29T10:58:57.086Z,11.97
2017-08-29T11:01:24.746Z,11.20
2017-08-29T11:03:52.352Z,10.73
2017-08-29T11:06:19.933Z,12.40
2017-08-29T11:08:47.507Z,13.40
2017-08-29T11:11:15.093Z,13.20
2017-08-29T11:13:42.695Z,11.90
2017-08-29T11:16:10.300Z,10.50
2017-08-29T11:18:38.021Z,12.30
2017-08-29T11:21:05.585Z,10.43
2017-08-29T11:23:33.188Z,11.30
2017-08-29T11:26:01.772Z,11.13
2017-08-29T11:28:29.466Z,10.07
2017-08-29T11:30:57.861Z,9.77
2017-08-29T11:33:25.466Z,10.70
2017-08-29T11:35:53.113Z,10.43
2017-08-29T11:38:20.759Z,9.90
2017-08-29T11:40:48.437Z,14.67
2017-08-29T11:43:16.039Z,11.97
2017-08-29T11:45:43.661Z,12.83
2017-08-29T11:48:11.257Z,10.13
2017-08-29T11:50:38.847Z,10.70
2017-08-29T11:53:06.450Z,9.80
2017-08-29T11:55:34.028Z,10.20
2017-08-29T11:58:01.731Z,9.63
2017-08-29T12:00:29.315Z,9.63
2017-08-29T12:02:57.189Z,10.67
2017-08-29T12:05:24.792Z,10.83
2017-08-29T12:07:52.369Z,11.00
2017-08-29T12:10:20.014Z,10.70
2017-08-29T12:12:47.595Z,10.63
2017-08-29T12:15:15.185Z,10.17
2017-08-29T12:17:42.799Z,11.43
2017-08-29T12:20:10.384Z,11.00
2017-08-29T12:22:37.984Z,13.63
2017-08-29T12:25:05.592Z,12.17
2017-08-29T12:27:33.164Z,12.37
2017-08-29T12:30:00.781Z,11.93
2017-08-29T12:32:28.402Z,13.17
2017-08-29T12:34:55.971Z,11.77
2017-08-29T12:37:23.553Z,12.87
2017-08-29T12:39:51.176Z,13.07
2017-08-29T12:42:18.784Z,13.00
2017-08-29T12:44:46.415Z,11.87
2017-08-29T12:47:14.032Z,12.33
2017-08-29T12:49:41.616Z,12.33
2017-08-29T12:52:09.188Z,13.97
2017-08-29T12:54:36.794Z,12.23
2017-08-29T12:57:04.399Z,12.07
2017-08-29T12:59:32.041Z,11.83
2017-08-29T13:01:59.657Z,12.73
2017-08-29T13:04:27.257Z,12.30
2017-08-29T13:06:54.865Z,12.73
2017-08-29T13:09:22.443Z,13.10
2017-08-29T13:11:50.064Z,11.70
2017-08-29T13:14:17.659Z,11.80
2017-08-29T13:16:45.245Z,11.33
2017-08-29T13:19:12.811Z,11.40
2017-08-29T13:21:40.399Z,11.33
2017-08-29T13:24:08.000Z,14.10
2017-08-29T13:26:35.594Z,11.63
2017-08-29T13:29:03.200Z,10.80
2017-08-29T13:31:30.794Z,10.80
2017-08-29T13:33:58.401Z,11.93
2017-08-29T13:36:25.987Z,12.07
2017-08-29T13:38:53.616Z,11.73
2017-08-29T13:41:21.207Z,11.43
2017-08-29T13:43:49.958Z,10.23
2017-08-29T13:46:17.550Z,11.10
2017-08-29T13:48:45.132Z,11.47
2017-08-29T13:51:12.756Z,10.63
2017-08-29T13:53:40.352Z,11.37
2017-08-29T13:56:08.028Z,11.30
2017-08-29T13:58:35.777Z,13.43
2017-08-29T14:01:03.403Z,11.43
2017-08-29T14:03:31.011Z,13.27
2017-08-29T14:05:58.744Z,11.73
2017-08-29T14:08:26.374Z,14.80
2017-08-29T14:10:54.936Z,12.37
2017-08-29T14:13:22.583Z,11.60
2017-08-29T14:15:50.760Z,11.73
2017-08-29T14:18:18.376Z,12.17
2017-08-29T14:20:46.015Z,11.53
2017-08-29T14:23:13.955Z,12.40
2017-08-29T14:25:41.602Z,12.43
2017-08-29T14:28:09.254Z,12.17
2017-08-29T14:30:36.936Z,11.37
2017-08-29T14:33:04.545Z,11.50
2017-08-29T14:35:32.170Z,13.10
2017-08-29T14:37:59.770Z,12.93
2017-08-29T14:40:27.414Z,12.37
2017-08-29T14:42:54.994Z,12.33
2017-08-29T14:45:22.759Z,12.00
2017-08-29T14:48:13.100Z,12.47
2017-08-29T14:50:41.348Z,14.70
2017-08-29T14:53:08.980Z,11.07
2017-08-29T14:55:36.574Z,11.60
2017-08-29T14:58:04.155Z,11.73
2017-08-29T15:00:31.757Z,10.33
2017-08-29T15:02:59.345Z,11.03
2017-08-29T15:05:26.928Z,11.00
2017-08-29T15:07:54.551Z,10.70
2017-08-29T15:10:22.140Z,11.33
2017-08-29T15:12:49.745Z,13.30
2017-08-29T15:15:17.359Z,12.13
2017-08-29T15:17:44.970Z,13.33
2017-08-29T15:20:16.786Z,13.10
2017-08-29T15:22:44.370Z,13.17
2017-08-29T15:25:11.990Z,13.13
2017-08-29T15:27:39.596Z,12.80
2017-08-29T15:30:07.216Z,13.07
2017-08-29T15:32:35.544Z,14.50
2017-08-29T15:35:03.135Z,13.23
2017-08-29T15:37:30.899Z,13.37
2017-08-29T15:39:59.349Z,13.23
2017-08-29T15:42:27.018Z,13.70
2017-08-29T15:44:54.604Z,18.00
2017-08-29T15:47:22.223Z,13.57
2017-08-29T15:49:49.840Z,13.60
2017-08-29T15:52:19.009Z,12.43
2017-08-29T15:54:46.667Z,17.90
2017-08-29T15:57:14.261Z,13.10
2017-08-29T15:59:41.881Z,13.37
2017-08-29T16:02:10.292Z,13.30
2017-08-29T16:04:37.896Z,13.40
2017-08-29T16:07:05.556Z,13.50
2017-08-29T16:09:33.154Z,13.77
2017-08-29T16:12:00.769Z,13.97
2017-08-29T16:14:28.400Z,13.13
2017-08-29T16:16:55.969Z,13.00
2017-08-29T16:19:23.560Z,13.03
2017-08-29T16:21:51.215Z,12.93
2017-08-29T16:24:18.855Z,13.67
2017-08-29T16:26:46.455Z,14.13
2017-08-29T16:29:14.124Z,13.57
2017-08-29T16:31:41.829Z,17.93
2017-08-29T16:34:09.449Z,14.07
2017-08-29T16:36:37.056Z,13.93
2017-08-29T16:39:04.699Z,15.73
2017-08-29T16:41:32.610Z,12.37
2017-08-29T16:44:00.200Z,17.17
2017-08-29T16:46:27.787Z,13.07
2017-08-29T16:48:55.400Z,16.23
2017-08-29T16:51:23.032Z,13.17
2017-08-29T16:53:50.619Z,13.70
2017-08-29T16:56:18.229Z,12.63
2017-08-29T16:58:45.858Z,13.13
2017-08-29T17:01:13.461Z,13.20
2017-08-29T17:03:41.119Z,13.60
2017-08-29T17:06:08.719Z,20.23
2017-08-29T17:08:36.333Z,13.37
2017-08-29T17:11:03.964Z,14.10
2017-08-29T17:13:31.563Z,13.43
2017-08-29T17:15:59.171Z,15.03
2017-08-29T17:18:26.786Z,15.20
2017-08-29T17:20:54.380Z,14.57
2017-08-29T17:23:21.972Z,15.40
2017-08-29T17:25:49.570Z,18.10
2017-08-29T17:28:17.191Z,13.90
2017-08-29T17:30:44.793Z,13.73
2017-08-29T17:33:12.387Z,14.90
2017-08-29T17:35:40.082Z,14.27
2017-08-29T17:38:07.758Z,14.23
2017-08-29T17:40:35.337Z,17.87
2017-08-29T17:43:02.924Z,15.00
2017-08-29T17:45:30.785Z,18.27
2017-08-29T17:47:58.442Z,27.77
2017-08-29T17:50:26.978Z,17.00
2017-08-29T17:52:54.671Z,15.60
2017-08-29T17:55:22.373Z,14.50
2017-08-29T17:57:49.947Z,14.43
2017-08-29T18:00:17.602Z,14.57
2017-08-29T18:02:45.205Z,13.50
2017-08-29T18:05:12.811Z,14.10
2017-08-29T18:07:40.420Z,14.33
2017-08-29T18:10:08.034Z,14.60
2017-08-29T18:12:35.629Z,14.50
2017-08-29T18:15:03.226Z,17.33
2017-08-29T18:17:30.846Z,15.43
2017-08-29T18:19:58.471Z,15.07
2017-08-29T18:22:26.078Z,19.73
2017-08-29T18:24:53.668Z,15.17
2017-08-29T18:27:21.287Z,19.93
2017-08-29T18:29:48.899Z,16.47
2017-08-29T18:32:17.465Z,16.50
2017-08-29T18:34:45.075Z,21.67
2017-08-29T18:37:12.708Z,16.13
2017-08-29T18:39:40.324Z,16.87
2017-08-29T18:42:07.914Z,18.93
2017-08-29T18:44:35.529Z,17.67
2017-08-29T18:47:03.097Z,17.47
2017-08-29T18:49:30.752Z,18.27
2017-08-29T18:51:58.342Z,16.13
2017-08-29T18:54:25.910Z,18.60
2017-08-29T18:56:53.487Z,17.87
2017-08-29T18:59:21.789Z,17.77
2017-08-29T19:01:49.468Z,18.33
2017-08-29T19:04:17.080Z,17.40
2017-08-29T19:06:44.713Z,19.00
2017-08-29T19:09:13.231Z,18.27
2017-08-29T19:11:40.812Z,20.60
2017-08-29T19:14:08.413Z,17.73
2017-08-29T19:16:36.019Z,19.50
2017-08-29T19:19:03.649Z,23.40
2017-08-29T19:21:31.260Z,25.37
2017-08-29T19:23:59.194Z,22.83
2017-08-29T19:26:27.638Z,23.20
2017-08-29T19:28:55.203Z,20.03
2017-08-29T19:31:22.781Z,21.97
2017-08-29T19:33:50.376Z,21.13
2017-08-29T19:36:18.005Z,19.83
2017-08-29T19:38:45.614Z,19.60
2017-08-29T19:41:13.259Z,19.87
2017-08-29T19:43:41.335Z,18.67
2017-08-29T19:46:08.941Z,19.57
2017-08-29T19:48:36.576Z,19.23
2017-08-29T19:51:04.192Z,19.13
2017-08-29T19:53:31.798Z,21.43
2017-08-29T19:55:59.443Z,18.50
2017-08-29T19:58:27.044Z,18.80
2017-08-29T20:00:54.695Z,20.37
2017-08-29T20:03:22.320Z,17.10
2017-08-29T20:05:49.937Z,17.13
2017-08-29T20:08:17.580Z,16.57
2017-08-29T20:10:45.879Z,16.57
2017-08-29T20:13:13.498Z,19.03
2017-08-29T20:15:41.073Z,20.53
2017-08-29T20:18:08.686Z,16.07
2017-08-29T20:20:36.318Z,17.97
2017-08-29T20:23:03.979Z,14.50
2017-08-29T20:25:31.566Z,17.63
2017-08-29T20:27:59.179Z,15.20
2017-08-29T20:30:26.813Z,14.63
2017-08-29T20:32:54.401Z,14.43
2017-08-29T20:35:22.014Z,15.07
2017-08-29T20:37:49.621Z,14.87
2017-08-29T20:40:17.236Z,21.40
2017-08-29T20:42:44.840Z,20.57
2017-08-29T20:45:12.466Z,19.60
2017-08-29T20:47:40.036Z,19.53
2017-08-29T20:50:07.652Z,20.53
2017-08-29T20:52:35.238Z,21.90
2017-08-29T20:55:02.861Z,19.90
2017-08-29T20:57:30.469Z,25.90
2017-08-29T20:59:58.056Z,22.13
2017-08-29T21:02:25.721Z,23.67
2017-08-29T21:04:53.321Z,23.50
2017-08-29T21:07:21.180Z,20.60
2017-08-29T21:09:48.735Z,21.83
2017-08-29T21:12:16.368Z,22.13
2017-08-29T21:14:43.979Z,22.30
2017-08-29T21:17:11.648Z,22.50
2017-08-29T21:19:39.253Z,22.73
2017-08-29T21:22:06.830Z,21.53
2017-08-29T21:24:34.450Z,19.73
2017-08-29T21:27:02.059Z,19.90
2017-08-29T21:29:29.648Z,21.40
2017-08-29T21:31:57.219Z,18.87
2017-08-29T21:34:24.838Z,20.00
2017-08-29T21:36:52.439Z,30.77
2017-08-29T21:39:20.053Z,18.67
2017-08-29T21:41:47.665Z,18.73
2017-08-29T21:44:16.682Z,19.30
2017-08-29T21:46:44.290Z,20.30
2017-08-29T21:49:11.885Z,20.67
2017-08-29T21:51:39.483Z,20.50
2017-08-29T21:54:07.098Z,20.00
2017-08-29T21:56:34.701Z,21.53
2017-08-29T21:59:02.289Z,19.70
2017-08-29T22:01:29.911Z,18.73
2017-08-29T22:03:57.505Z,20.03
2017-08-29T22:06:25.119Z,22.23
2017-08-29T22:08:53.648Z,21.67
2017-08-29T22:11:21.259Z,25.50
2017-08-29T22:13:48.863Z,22.00
2017-08-29T22:16:16.469Z,25.40
2017-08-29T22:18:44.083Z,20.50
2017-08-29T22:21:11.664Z,24.33
2017-08-29T22:23:39.288Z,20.70
2017-08-29T22:26:06.858Z,22.50
2017-08-29T22:28:34.472Z,19.97
2017-08-29T22:31:02.075Z,20.60
2017-08-29T22:33:29.684Z,21.47
2017-08-29T22:35:58.047Z,22.73
2017-08-29T22:38:26.356Z,22.80
2017-08-29T22:40:53.988Z,22.83
2017-08-29T22:43:21.625Z,19.70
2017-08-29T22:45:50.546Z,24.80
2017-08-29T22:48:18.108Z,24.07
2017-08-29T22:50:45.795Z,20.40
2017-08-29T22:53:13.368Z,22.97
2017-08-29T22:55:40.955Z,20.70
2017-08-29T22:58:08.584Z,22.33
2017-08-29T23:00:36.329Z,21.10
2017-08-29T23:03:03.924Z,20.30
2017-08-29T23:05:31.504Z,28.43
2017-08-29T23:07:59.110Z,19.03
2017-08-29T23:10:26.710Z,26.97
2017-08-29T23:12:54.302Z,24.53
2017-08-29T23:15:21.916Z,18.97
2017-08-29T23:17:49.514Z,20.10
2017-08-29T23:20:17.107Z,20.63
2017-08-29T23:22:44.698Z,20.53
2017-08-29T23:25:14.205Z,20.63
2017-08-29T23:27:41.826Z,22.10
2017-08-29T23:30:09.507Z,20.17
2017-08-29T23:32:37.082Z,20.67
2017-08-29T23:35:04.704Z,25.93
2017-08-29T23:37:32.400Z,20.57
2017-08-29T23:40:00.042Z,25.30
2017-08-29T23:42:28.498Z,19.97
2017-08-29T23:44:56.161Z,23.30
2017-08-29T23:47:23.811Z,23.23
2017-08-29T23:49:51.401Z,22.97
2017-08-29T23:52:19.062Z,23.73
2017-08-29T23:54:47.630Z,21.13
2017-08-29T23:57:15.229Z,23.70
2017-08-29T23:59:42.840Z,20.97
